Time;durP1;ratioP1;P1;durP2;ratioP2;P2;SDS_P1;SDS_P2;PMS_P1;PMS_P2;Temp;Humidity;BMP_temperature;BMP_pressure;BME280_temperature;BME280_humidity;BME280_pressure;Samples;Min_cycle;Max_cycle;Signal;HPM_P1;HPM_P2
2021/01/26 00:01:17;;;;;;;41.75;20.63;;;1.80;99.90;;;;;;5000813;28;20861;-72
2021/01/26 00:03:43;;;;;;;42.63;20.65;;;1.80;99.90;;;;;;4998276;28;20046;-73
2021/01/26 00:06:09;;;;;;;50.78;22.15;;;1.90;99.90;;;;;;4998685;28;20036;-73
2021/01/26 00:08:35;;;;;;;43.78;22.05;;;1.90;99.90;;;;;;4999552;28;20022;-73
2021/01/26 00:11:03;;;;;;;45.33;22.17;;;1.90;99.90;;;;;;5000170;28;20053;-73
2021/01/26 00:13:29;;;;;;;47.97;21.95;;;1.90;99.90;;;;;;4999927;28;20041;-73
2021/01/26 00:15:54;;;;;;;52.42;24.00;;;1.90;99.90;;;;;;4999828;28;20034;-72
2021/01/26 00:18:20;;;;;;;57.28;25.05;;;1.90;99.90;;;;;;4998058;28;20042;-73
2021/01/26 00:20:46;;;;;;;53.30;24.33;;;1.90;99.90;;;;;;4999975;28;20125;-73
2021/01/26 00:23:12;;;;;;;51.05;24.58;;;1.90;99.90;;;;;;5000365;28;20042;-73
2021/01/26 00:25:39;;;;;;;51.75;24.70;;;1.90;99.90;;;;;;4999200;28;20451;-73
2021/01/26 00:28:08;;;;;;;57.28;25.50;;;1.90;99.90;;;;;;4999500;28;20026;-73
2021/01/26 00:30:36;;;;;;;51.15;24.80;;;1.90;99.90;;;;;;4999693;28;20036;-73
2021/01/26 00:33:06;;;;;;;47.35;24.77;;;1.90;99.90;;;;;;4998558;28;20469;-73
2021/01/26 00:35:31;;;;;;;43.28;21.73;;;1.90;99.90;;;;;;4999226;28;20454;-73
2021/01/26 00:37:59;;;;;;;49.45;23.90;;;1.90;99.90;;;;;;4999866;28;20099;-73
2021/01/26 00:40:26;;;;;;;48.42;23.17;;;1.90;99.90;;;;;;4999456;28;20115;-73
2021/01/26 00:42:52;;;;;;;49.53;21.85;;;1.90;99.90;;;;;;4999604;28;20044;-73
2021/01/26 00:45:22;;;;;;;48.10;21.88;;;1.80;99.90;;;;;;4999467;28;20049;-73
2021/01/26 00:47:49;;;;;;;45.13;22.40;;;1.90;99.90;;;;;;4998406;28;20026;-73
2021/01/26 00:50:15;;;;;;;42.45;21.73;;;1.90;99.90;;;;;;4997685;28;20116;-73
2021/01/26 00:52:41;;;;;;;41.10;20.20;;;1.90;99.90;;;;;;4998461;28;20037;-73
2021/01/26 00:55:20;;;;;;;;;;;1.80;99.90;;;;;;4999786;28;20041;-73
2021/01/26 00:57:47;;;;;;;40.45;19.20;;;1.70;99.90;;;;;;4997612;28;19920;-73
2021/01/26 01:00:21;;;;;;;47.72;20.73;;;1.70;99.90;;;;;;4999747;28;20038;-73
2021/01/26 01:02:47;;;;;;;38.75;19.52;;;1.70;99.90;;;;;;4997653;28;20141;-73
2021/01/26 01:05:14;;;;;;;45.65;20.00;;;1.60;99.90;;;;;;4999256;28;20034;-73
2021/01/26 01:07:40;;;;;;;40.83;20.40;;;1.50;99.90;;;;;;4999655;28;20072;-73
2021/01/26 01:10:07;;;;;;;49.40;21.60;;;1.40;99.90;;;;;;4998570;28;20101;-73
2021/01/26 01:12:32;;;;;;;45.40;19.75;;;1.40;99.90;;;;;;4999251;28;20060;-74
2021/01/26 01:14:58;;;;;;;40.67;19.35;;;1.30;99.90;;;;;;4998823;28;20034;-73
2021/01/26 01:17:24;;;;;;;49.60;20.10;;;1.30;99.90;;;;;;4998985;28;20194;-73
2021/01/26 01:19:49;;;;;;;48.35;20.15;;;1.10;99.90;;;;;;4998712;28;20081;-73
2021/01/26 01:22:15;;;;;;;41.38;20.17;;;1.10;99.90;;;;;;4999292;28;20038;-73
2021/01/26 01:24:40;;;;;;;39.30;20.33;;;1.00;99.90;;;;;;4998373;28;20523;-73
2021/01/26 01:27:06;;;;;;;39.88;19.30;;;1.10;99.90;;;;;;4998770;28;20103;-73
2021/01/26 01:29:32;;;;;;;43.70;21.25;;;1.00;99.90;;;;;;4998232;28;20034;-73
2021/01/26 01:31:58;;;;;;;42.47;19.88;;;1.00;99.90;;;;;;4997306;28;20084;-73
2021/01/26 01:34:24;;;;;;;39.42;20.20;;;0.90;99.90;;;;;;4999085;28;20030;-73
2021/01/26 01:36:50;;;;;;;40.40;19.73;;;0.90;99.90;;;;;;4998566;28;20048;-73
2021/01/26 01:39:16;;;;;;;38.13;18.75;;;0.90;99.90;;;;;;4998402;28;20124;-73
2021/01/26 01:41:41;;;;;;;40.25;19.15;;;0.80;99.90;;;;;;4998652;28;20037;-73
2021/01/26 01:44:07;;;;;;;40.92;18.70;;;0.70;99.90;;;;;;4998418;28;20759;-73
2021/01/26 01:46:39;;;;;;;42.28;20.23;;;0.60;99.90;;;;;;4997971;28;20041;-73
2021/01/26 01:49:08;;;;;;;44.80;20.35;;;0.50;99.90;;;;;;4998696;28;20133;-73
2021/01/26 01:51:38;;;;;;;40.88;19.08;;;0.50;99.90;;;;;;4997795;28;20611;-73
2021/01/26 01:54:17;;;;;;;43.30;19.95;;;0.60;99.90;;;;;;4997529;28;20498;-73
2021/01/26 01:56:46;;;;;;;48.83;20.80;;;0.50;99.90;;;;;;4996727;28;20908;-73
2021/01/26 01:59:18;;;;;;;36.47;18.45;;;0.50;99.90;;;;;;5012666;28;20140;-73
2021/01/26 02:01:45;;;;;;;49.17;20.45;;;0.50;99.90;;;;;;4997492;28;20058;-73
2021/01/26 02:04:14;;;;;;;41.63;20.05;;;0.50;99.90;;;;;;4998166;28;20574;-73
2021/01/26 02:06:43;;;;;;;45.88;21.52;;;0.60;99.90;;;;;;4998192;28;20041;-73
2021/01/26 02:09:14;;;;;;;39.28;19.15;;;0.70;99.90;;;;;;4997622;28;20505;-73
2021/01/26 02:11:41;;;;;;;44.15;21.05;;;0.50;99.90;;;;;;4998123;28;20038;-73
2021/01/26 02:14:07;;;;;;;42.95;19.98;;;0.50;99.90;;;;;;4996365;28;20065;-72
2021/01/26 02:16:45;;;;;;;48.60;20.48;;;0.50;99.90;;;;;;4997720;28;20116;-72
2021/01/26 02:19:29;;;;;;;43.45;21.02;;;0.50;99.90;;;;;;4998097;28;20878;-72
2021/01/26 02:22:19;;;;;;;46.75;21.17;;;0.40;99.90;;;;;;4998381;28;20056;-72
2021/01/26 02:25:13;;;;;;;46.40;20.77;;;0.20;99.90;;;;;;4998219;28;20034;-72
2021/01/26 02:28:06;;;;;;;55.38;21.15;;;0.10;99.90;;;;;;4998359;28;20041;-72
2021/01/26 02:30:31;;;;;;;43.63;19.83;;;0.00;99.90;;;;;;4995789;28;20103;-72
2021/01/26 02:33:00;;;;;;;43.33;21.27;;;-0.10;99.90;;;;;;4998347;28;20112;-72
2021/01/26 02:35:47;;;;;;;41.78;21.08;;;-0.20;99.90;;;;;;4996881;28;20037;-72
2021/01/26 02:38:39;;;;;;;44.42;21.88;;;-0.20;99.90;;;;;;4997501;28;20034;-72
2021/01/26 02:41:25;;;;;;;49.38;22.25;;;-0.30;99.90;;;;;;4995799;28;20208;-74
2021/01/26 02:44:11;;;;;;;;;;;-0.30;99.90;;;;;;4998632;28;20057;-72
2021/01/26 02:46:41;;;;;;;54.42;22.55;;;-0.40;99.90;;;;;;4997307;28;20686;-71
2021/01/26 02:49:31;;;;;;;49.22;22.27;;;-0.40;99.90;;;;;;4997906;28;20034;-72
2021/01/26 02:52:21;;;;;;;49.63;21.88;;;-0.50;99.90;;;;;;4997284;28;20061;-73
2021/01/26 02:55:15;;;;;;;48.88;22.85;;;-0.50;99.90;;;;;;4998053;28;20750;-72
2021/01/26 02:57:52;;;;;;;52.97;23.83;;;-0.50;99.90;;;;;;4991581;28;20157;-72
2021/01/26 03:00:25;;;;;;;52.08;23.90;;;-0.50;99.90;;;;;;4997870;28;20038;-72
2021/01/26 03:03:01;;;;;;;53.70;23.98;;;-0.40;99.90;;;;;;4998011;28;20206;-73
2021/01/26 03:05:55;;;;;;;64.75;25.33;;;-0.40;99.90;;;;;;4998067;28;20034;-73
2021/01/26 03:08:35;;;;;;;58.83;25.23;;;-0.40;99.90;;;;;;4991342;28;20080;-72
2021/01/26 03:11:32;;;;;;;57.38;24.20;;;-0.30;99.90;;;;;;4992798;28;20042;-72
2021/01/26 03:14:18;;;;;;;62.28;25.50;;;-0.40;99.90;;;;;;4971655;28;20699;-72
2021/01/26 03:16:46;;;;;;;50.85;24.55;;;-0.40;99.90;;;;;;5001216;28;20422;-72
2021/01/26 03:19:16;;;;;;;56.45;23.95;;;-0.50;99.90;;;;;;5001459;28;20058;-72
2021/01/26 03:21:47;;;;;;;58.55;26.15;;;-0.50;99.90;;;;;;5000903;28;20399;-72
2021/01/26 03:24:24;;;;;;;56.70;24.40;;;-0.50;99.90;;;;;;5001678;28;20486;-72
2021/01/26 03:26:51;;;;;;;58.78;25.33;;;-0.60;99.90;;;;;;5000741;28;20113;-73
2021/01/26 03:29:23;;;;;;;54.80;24.77;;;-0.70;99.90;;;;;;4999046;28;20042;-73
2021/01/26 03:31:53;;;;;;;60.83;25.75;;;-0.70;99.90;;;;;;5000649;28;20076;-72
2021/01/26 03:34:20;;;;;;;63.13;26.85;;;-0.60;99.90;;;;;;5001356;28;20030;-73
2021/01/26 03:36:46;;;;;;;59.70;25.70;;;-0.50;99.90;;;;;;5000235;28;20487;-72
2021/01/26 03:39:12;;;;;;;67.18;27.08;;;-0.50;99.90;;;;;;5001141;28;20084;-73
2021/01/26 03:41:38;;;;;;;60.75;25.65;;;-0.50;99.90;;;;;;5000387;28;20026;-73
2021/01/26 03:44:06;;;;;;;59.10;25.55;;;-0.50;99.90;;;;;;5000617;28;20951;-73
2021/01/26 03:46:46;;;;;;;57.60;24.90;;;-0.50;99.90;;;;;;4999614;28;20827;-72
2021/01/26 03:49:52;;;;;;;54.00;24.67;;;-0.60;99.90;;;;;;5000998;28;20031;-73
2021/01/26 03:52:48;;;;;;;55.25;24.17;;;-0.60;99.90;;;;;;4998283;28;20665;-73
2021/01/26 03:55:58;;;;;;;58.78;25.27;;;-0.70;99.90;;;;;;4999140;28;20037;-72
2021/01/26 03:58:48;;;;;;;50.38;22.98;;;-0.70;99.90;;;;;;4938901;29;20043;-73
2021/01/26 04:01:27;;;;;;;52.38;23.88;;;-0.80;99.90;;;;;;5000310;28;20148;-73
2021/01/26 04:04:14;;;;;;;52.58;24.27;;;-0.80;99.90;;;;;;5000340;28;20034;-74
2021/01/26 04:06:45;;;;;;;50.92;24.63;;;-0.80;99.90;;;;;;5000241;28;20037;-73
2021/01/26 04:09:14;;;;;;;55.88;24.13;;;-0.80;99.90;;;;;;5000591;28;20033;-73
2021/01/26 04:11:49;;;;;;;48.47;22.02;;;-0.70;99.90;;;;;;5000854;28;20108;-72
2021/01/26 04:14:29;;;;;;;62.90;25.40;;;-0.70;99.90;;;;;;5000045;28;20733;-73
2021/01/26 04:17:06;;;;;;;47.95;23.13;;;-0.70;99.90;;;;;;4999593;28;20827;-73
2021/01/26 04:19:38;;;;;;;55.15;24.35;;;-0.70;99.90;;;;;;5000876;28;20109;-72
2021/01/26 04:22:07;;;;;;;53.45;23.73;;;-0.60;99.90;;;;;;4998817;28;20033;-73
2021/01/26 04:24:35;;;;;;;50.22;22.90;;;-0.60;99.90;;;;;;4996846;28;20045;-73
2021/01/26 04:27:05;;;;;;;53.65;23.15;;;-0.60;99.90;;;;;;5000198;28;20060;-73
2021/01/26 04:29:30;;;;;;;51.70;24.05;;;-0.60;99.90;;;;;;5000095;28;20112;-73
2021/01/26 04:31:56;;;;;;;52.63;23.10;;;-0.60;99.90;;;;;;5000574;28;20038;-73
2021/01/26 04:34:23;;;;;;;53.20;23.88;;;-0.60;99.90;;;;;;4999156;28;20113;-73
2021/01/26 04:36:48;;;;;;;49.65;22.33;;;-0.60;99.90;;;;;;4999367;28;20074;-73
2021/01/26 04:39:14;;;;;;;48.50;21.67;;;-0.70;99.90;;;;;;5000051;28;20117;-73
2021/01/26 04:42:02;;;;;;;49.63;21.95;;;-0.70;99.90;;;;;;4998365;28;20038;-73
2021/01/26 04:44:48;;;;;;;48.13;22.98;;;-0.80;99.90;;;;;;4999625;28;20064;-73
2021/01/26 04:47:18;;;;;;;47.88;21.58;;;-0.80;99.90;;;;;;4998526;28;20037;-73
2021/01/26 04:50:10;;;;;;;45.40;20.85;;;-0.80;99.90;;;;;;5000136;28;20612;-73
2021/01/26 04:52:50;;;;;;;48.38;21.83;;;-0.90;99.90;;;;;;4999734;28;20557;-73
2021/01/26 04:55:52;;;;;;;49.20;21.48;;;-0.90;99.90;;;;;;4998051;28;20037;-73
2021/01/26 04:58:47;;;;;;;49.35;21.38;;;-0.90;99.90;;;;;;4999560;28;20083;-73
2021/01/26 05:01:16;;;;;;;46.33;20.67;;;-0.90;99.90;;;;;;5000034;28;20391;-73
2021/01/26 05:03:57;;;;;;;49.97;21.65;;;-1.00;99.90;;;;;;4999698;28;20493;-73
2021/01/26 05:06:28;;;;;;;41.17;20.52;;;-1.00;99.90;;;;;;4998805;28;20104;-73
2021/01/26 05:08:57;;;;;;;42.90;19.80;;;-1.10;99.90;;;;;;4998069;28;20057;-73
2021/01/26 05:11:26;;;;;;;47.75;19.88;;;-1.10;99.90;;;;;;4999159;28;20065;-73
2021/01/26 05:14:24;;;;;;;42.22;20.83;;;-1.20;99.90;;;;;;4999003;28;20498;-73
2021/01/26 05:17:08;;;;;;;44.80;20.13;;;-1.20;99.90;;;;;;4974502;28;20114;-73
2021/01/26 05:19:49;;;;;;;45.70;19.45;;;-1.20;99.90;;;;;;4998613;28;20041;-72
2021/01/26 05:22:43;;;;;;;41.08;18.23;;;-1.30;99.90;;;;;;4998535;28;20038;-73
2021/01/26 05:25:12;;;;;;;40.10;17.95;;;-1.30;99.90;;;;;;4992516;28;20056;-72
2021/01/26 05:27:38;;;;;;;38.58;16.95;;;-1.40;99.90;;;;;;4998323;28;20076;-73
2021/01/26 05:30:10;;;;;;;39.83;18.48;;;-1.30;99.90;;;;;;4998889;28;20040;-73
2021/01/26 05:32:37;;;;;;;36.45;18.17;;;-1.40;99.90;;;;;;4996521;28;20120;-73
2021/01/26 05:35:04;;;;;;;42.90;18.92;;;-1.40;99.90;;;;;;4998001;28;20480;-72
2021/01/26 05:37:32;;;;;;;41.13;19.50;;;-1.40;99.90;;;;;;4997742;28;20496;-73
2021/01/26 05:40:09;;;;;;;37.78;18.70;;;-1.30;99.90;;;;;;4999341;28;20096;-73
2021/01/26 05:42:36;;;;;;;42.50;19.73;;;-1.20;99.90;;;;;;4998283;28;20038;-72
2021/01/26 05:45:09;;;;;;;36.42;18.33;;;-1.20;99.90;;;;;;4998388;28;20030;-73
2021/01/26 05:47:38;;;;;;;38.60;18.67;;;-1.10;99.90;;;;;;4997779;28;20506;-72
2021/01/26 05:50:04;;;;;;;37.03;17.88;;;-1.00;99.90;;;;;;4998318;28;20104;-72
2021/01/26 05:52:40;;;;;;;38.28;17.60;;;-1.00;99.90;;;;;;4999050;28;20044;-73
2021/01/26 05:55:24;;;;;;;42.28;18.98;;;-0.90;99.90;;;;;;4998061;28;20088;-73
2021/01/26 05:57:50;;;;;;;35.17;16.60;;;-0.90;99.90;;;;;;4998505;28;20038;-73
2021/01/26 06:00:23;;;;;;;30.85;16.40;;;-0.90;99.90;;;;;;4998001;28;20117;-73
2021/01/26 06:03:20;;;;;;;30.65;15.73;;;-0.90;99.90;;;;;;5011585;28;20065;-73
2021/01/26 06:06:06;;;;;;;37.33;17.13;;;-0.80;99.90;;;;;;5007591;28;20657;-72
2021/01/26 06:08:47;;;;;;;33.97;17.63;;;-0.80;99.90;;;;;;5012759;28;20106;-74
2021/01/26 06:11:21;;;;;;;28.88;15.60;;;-0.80;99.90;;;;;;5014229;28;20044;-73
2021/01/26 06:13:47;;;;;;;37.72;17.52;;;-0.80;99.90;;;;;;5014744;28;20438;-73
2021/01/26 06:16:21;;;;;;;29.98;15.90;;;-0.70;99.90;;;;;;5011552;28;20061;-73
2021/01/26 06:19:01;;;;;;;35.78;16.38;;;-0.70;99.90;;;;;;5015155;28;20084;-72
2021/01/26 06:21:44;;;;;;;29.88;15.85;;;-0.70;99.90;;;;;;5014533;28;20511;-72
2021/01/26 06:24:20;;;;;;;33.20;15.73;;;-0.70;99.90;;;;;;5009196;28;20037;-72
2021/01/26 06:27:19;;;;;;;38.67;16.98;;;-0.60;99.90;;;;;;5010804;28;20425;-71
2021/01/26 06:30:03;;;;;;;28.33;15.23;;;-0.60;99.90;;;;;;5006775;28;20087;-73
2021/01/26 06:32:56;;;;;;;29.40;15.88;;;-0.50;99.90;;;;;;5015559;28;20486;-74
2021/01/26 06:35:59;;;;;;;32.85;16.67;;;-0.50;99.90;;;;;;5006880;28;20517;-72
2021/01/26 06:38:27;;;;;;;30.30;16.50;;;-0.50;99.90;;;;;;5009712;28;20502;-72
2021/01/26 06:44:28;;;;;;;28.67;15.15;;;-0.60;99.90;;;;;;5064653;27;20879;-71
2021/01/26 06:47:16;;;;;;;35.17;17.25;;;-0.70;99.90;;;;;;5023217;28;20049;-71
2021/01/26 06:50:04;;;;;;;31.50;16.25;;;-0.70;99.90;;;;;;5071757;28;20373;-71
2021/01/26 06:53:03;;;;;;;32.45;15.98;;;-0.80;99.90;;;;;;5066452;28;20047;-71
2021/01/26 06:55:46;;;;;;;33.67;16.45;;;-0.80;99.90;;;;;;5058321;28;20041;-71
2021/01/26 06:58:21;;;;;;;37.75;17.33;;;-0.80;99.90;;;;;;5055894;28;20204;-71
2021/01/26 07:00:50;;;;;;;27.60;13.18;;;-0.80;99.90;;;;;;5042266;28;20029;-71
2021/01/26 07:03:34;;;;;;;35.50;17.05;;;-0.80;99.90;;;;;;5056647;28;20072;-71
2021/01/26 07:06:22;;;;;;;34.13;17.95;;;-0.70;99.90;;;;;;5060146;28;20138;-71
2021/01/26 07:08:54;;;;;;;33.28;17.75;;;-0.70;99.90;;;;;;5063158;28;20083;-71
2021/01/26 07:11:44;;;;;;;36.35;18.17;;;-0.70;99.90;;;;;;5061663;28;20175;-69
2021/01/26 07:14:48;;;;;;;35.25;17.88;;;-0.70;99.90;;;;;;5064536;28;20549;-71
2021/01/26 07:17:27;;;;;;;33.45;17.48;;;-0.70;99.90;;;;;;5060135;28;20032;-71
2021/01/26 07:20:18;;;;;;;31.42;16.67;;;-0.60;99.90;;;;;;5056715;28;20055;-70
2021/01/26 07:23:11;;;;;;;37.38;17.50;;;-0.60;99.90;;;;;;5055018;28;20044;-71
2021/01/26 07:25:46;;;;;;;32.72;16.88;;;-0.50;99.90;;;;;;5057354;28;20078;-71
2021/01/26 07:28:30;;;;;;;38.33;19.73;;;-0.40;99.90;;;;;;5056289;28;20065;-71
2021/01/26 07:31:14;;;;;;;37.28;18.23;;;-0.40;99.90;;;;;;5054099;28;20035;-71
2021/01/26 07:34:23;;;;;;;39.17;19.20;;;-0.40;99.90;;;;;;5063678;28;20821;-72
2021/01/26 07:37:08;;;;;;;36.05;17.92;;;-0.40;99.90;;;;;;5063498;28;20799;-71
2021/01/26 07:40:14;;;;;;;48.33;22.52;;;-0.40;99.90;;;;;;5063527;28;20578;-72
2021/01/26 07:43:21;;;;;;;38.47;19.27;;;-0.40;99.90;;;;;;5045168;28;20041;-72
2021/01/26 07:46:04;;;;;;;37.92;18.40;;;-0.30;99.90;;;;;;5055363;28;20837;-72
2021/01/26 07:48:44;;;;;;;37.92;18.65;;;-0.20;99.90;;;;;;5055844;28;20029;-71
2021/01/26 07:51:17;;;;;;;36.17;19.02;;;-0.20;99.90;;;;;;5057696;28;20064;-71
2021/01/26 07:54:12;;;;;;;39.80;20.10;;;0.00;99.90;;;;;;5053526;28;20127;-71
2021/01/26 07:56:40;;;;;;;39.28;19.25;;;0.00;99.90;;;;;;5040665;28;20143;-71
2021/01/26 07:59:24;;;;;;;42.10;19.75;;;0.00;99.90;;;;;;5040990;28;20072;-70
2021/01/26 08:01:54;;;;;;;56.20;25.85;;;0.00;99.90;;;;;;5045435;28;20111;-72
2021/01/26 08:04:20;;;;;;;39.85;20.80;;;0.10;99.90;;;;;;5049334;28;20075;-72
2021/01/26 08:06:58;;;;;;;40.45;20.05;;;0.10;99.90;;;;;;5046214;28;20053;-72
2021/01/26 08:09:34;;;;;;;41.80;19.15;;;0.20;99.90;;;;;;5049768;28;20064;-67
2021/01/26 08:12:09;;;;;;;39.58;18.73;;;0.20;99.90;;;;;;5047096;28;20040;-71
2021/01/26 08:14:39;;;;;;;40.22;19.45;;;0.30;99.90;;;;;;5043287;28;20036;-71
2021/01/26 08:17:11;;;;;;;40.10;20.08;;;0.30;99.90;;;;;;5053960;28;20461;-71
2021/01/26 08:19:53;;;;;;;38.13;19.50;;;0.40;99.90;;;;;;5037212;28;20053;-71
2021/01/26 08:22:31;;;;;;;36.40;19.05;;;0.40;99.90;;;;;;5043720;28;20141;-71
2021/01/26 08:25:17;;;;;;;38.70;20.38;;;0.40;99.90;;;;;;5038581;28;20478;-70
2021/01/26 08:27:43;;;;;;;38.30;20.38;;;0.50;99.90;;;;;;5043460;28;20508;-71
2021/01/26 08:30:11;;;;;;;36.22;19.95;;;0.50;99.90;;;;;;5044167;28;20037;-71
2021/01/26 08:32:37;;;;;;;37.35;19.52;;;0.60;99.90;;;;;;5043810;28;20048;-71
2021/01/26 08:35:10;;;;;;;40.33;19.83;;;0.70;99.90;;;;;;5039944;28;20044;-71
2021/01/26 08:37:42;;;;;;;38.15;19.25;;;0.60;99.90;;;;;;5054249;28;20032;-72
2021/01/26 08:40:09;;;;;;;39.33;19.85;;;0.60;99.90;;;;;;5049184;28;20838;-71
2021/01/26 08:42:41;;;;;;;40.95;21.05;;;0.60;99.90;;;;;;5039233;28;20630;-72
2021/01/26 08:45:07;;;;;;;41.88;20.02;;;0.40;99.90;;;;;;5040255;28;20025;-72
2021/01/26 08:48:04;;;;;;;43.95;21.17;;;0.40;99.90;;;;;;5037578;28;20079;-72
2021/01/26 08:50:35;;;;;;;48.78;22.27;;;0.50;99.90;;;;;;5031853;28;20144;-72
2021/01/26 08:53:28;;;;;;;40.90;21.55;;;0.60;99.90;;;;;;5050643;28;20041;-71
2021/01/26 08:55:55;;;;;;;39.40;20.10;;;0.70;99.90;;;;;;5036531;28;20120;-72
2021/01/26 08:58:51;;;;;;;44.60;21.65;;;0.90;99.90;;;;;;5046624;28;20041;-71
2021/01/26 09:01:23;;;;;;;45.17;22.00;;;1.20;99.90;;;;;;5045732;28;20135;-72
2021/01/26 09:04:11;;;;;;;36.08;18.88;;;1.50;99.90;;;;;;5046963;28;20122;-72
2021/01/26 09:06:39;;;;;;;42.58;20.58;;;1.60;99.90;;;;;;5048638;28;20614;-72
2021/01/26 09:09:18;;;;;;;38.90;19.98;;;1.70;99.90;;;;;;5046797;28;20733;-72
2021/01/26 09:11:44;;;;;;;38.95;19.50;;;2.00;99.90;;;;;;5040492;28;20032;-72
2021/01/26 09:14:22;;;;;;;35.25;20.08;;;2.20;99.90;;;;;;5039805;28;20040;-72
2021/01/26 09:16:55;;;;;;;40.80;20.27;;;2.30;99.90;;;;;;5038200;28;20035;-72
2021/01/26 09:19:43;;;;;;;38.80;19.98;;;2.50;99.90;;;;;;5048669;28;20056;-68
2021/01/26 09:22:21;;;;;;;38.40;20.17;;;2.50;99.90;;;;;;5044385;28;20032;-71
2021/01/26 09:24:48;;;;;;;41.63;21.02;;;2.60;99.90;;;;;;5041836;28;20033;-72
2021/01/26 09:27:24;;;;;;;41.38;20.85;;;2.80;99.90;;;;;;5042280;28;20033;-71
2021/01/26 09:30:17;;;;;;;43.30;21.45;;;3.00;99.90;;;;;;5046863;28;20038;-72
2021/01/26 09:32:46;;;;;;;36.50;19.77;;;3.00;99.90;;;;;;5040750;28;20033;-70
2021/01/26 09:35:24;;;;;;;39.30;21.35;;;2.90;99.90;;;;;;5046894;28;20505;-75
2021/01/26 09:38:23;;;;;;;41.22;21.02;;;2.90;99.90;;;;;;5033909;28;20931;-75
2021/01/26 09:41:26;;;;;;;41.33;20.50;;;2.80;99.90;;;;;;5041052;28;20079;-75
2021/01/26 09:44:17;;;;;;;35.92;19.90;;;2.80;99.90;;;;;;5041242;28;20056;-75
2021/01/26 09:46:48;;;;;;;39.55;20.60;;;3.00;99.90;;;;;;5044626;28;20041;-75
2021/01/26 09:49:17;;;;;;;37.17;20.55;;;3.00;99.90;;;;;;5038736;28;20065;-75
2021/01/26 09:51:57;;;;;;;50.28;23.90;;;2.90;99.90;;;;;;5035142;28;20091;-77
2021/01/26 09:54:29;;;;;;;36.83;20.42;;;2.90;99.90;;;;;;5038585;28;20580;-74
2021/01/26 09:56:57;;;;;;;41.03;20.15;;;3.10;99.90;;;;;;5045781;28;20051;-75
2021/01/26 09:59:24;;;;;;;39.92;21.30;;;3.20;99.90;;;;;;5041993;28;20044;-74
2021/01/26 10:01:50;;;;;;;40.40;21.25;;;3.30;99.90;;;;;;5037332;28;20036;-73
2021/01/26 10:04:20;;;;;;;43.72;22.38;;;3.30;99.90;;;;;;5042085;28;20130;-75
2021/01/26 10:06:47;;;;;;;41.58;21.52;;;3.10;99.90;;;;;;5044883;28;20108;-74
2021/01/26 10:09:23;;;;;;;42.88;22.40;;;3.10;99.90;;;;;;5048117;28;20037;-73
2021/01/26 10:11:50;;;;;;;39.42;21.20;;;3.30;99.90;;;;;;5042973;28;20040;-73
2021/01/26 10:14:17;;;;;;;46.50;22.88;;;3.50;99.90;;;;;;5043848;28;20122;-73
2021/01/26 10:16:46;;;;;;;43.90;22.10;;;3.60;99.90;;;;;;5041711;28;20032;-74
2021/01/26 10:19:25;;;;;;;42.53;22.60;;;3.60;99.90;;;;;;5037539;28;20140;-75
2021/01/26 10:21:52;;;;;;;46.65;23.77;;;3.40;99.90;;;;;;5029566;28;20037;-74
2021/01/26 10:24:30;;;;;;;45.75;23.40;;;3.50;99.90;;;;;;5040823;28;20030;-74
2021/01/26 10:27:06;;;;;;;42.92;21.98;;;3.60;99.90;;;;;;5034596;28;20032;-74
2021/01/26 10:30:12;;;;;;;42.47;20.90;;;3.70;99.90;;;;;;5034033;28;20136;-75
2021/01/26 10:32:56;;;;;;;40.75;20.83;;;3.50;99.90;;;;;;5046322;28;20028;-75
2021/01/26 10:35:28;;;;;;;45.85;22.33;;;3.40;99.90;;;;;;5040738;28;20044;-75
2021/01/26 10:37:55;;;;;;;47.17;22.83;;;3.30;99.90;;;;;;5035081;28;20494;-73
2021/01/26 10:40:26;;;;;;;42.08;22.38;;;3.30;99.90;;;;;;5039967;28;20512;-71
2021/01/26 10:43:17;;;;;;;44.83;21.55;;;3.00;99.90;;;;;;5043934;28;20814;-70
2021/01/26 10:45:47;;;;;;;43.28;22.90;;;3.10;99.90;;;;;;5032551;28;20067;-75
2021/01/26 10:48:21;;;;;;;43.90;23.55;;;3.30;99.90;;;;;;5041877;28;20800;-74
2021/01/26 10:50:46;;;;;;;42.58;22.15;;;3.50;99.90;;;;;;5026551;28;20065;-77
2021/01/26 10:53:31;;;;;;;46.03;23.45;;;3.70;99.90;;;;;;5031225;28;20109;-77
2021/01/26 10:55:57;;;;;;;39.63;21.38;;;3.70;99.90;;;;;;5039676;28;20261;-77
2021/01/26 10:58:22;;;;;;;38.80;21.50;;;3.90;99.90;;;;;;5043643;28;20040;-77
2021/01/26 11:00:50;;;;;;;41.90;22.15;;;3.90;99.90;;;;;;5044047;28;20029;-76
2021/01/26 11:03:16;;;;;;;40.25;20.27;;;4.00;99.90;;;;;;5036697;28;20043;-76
2021/01/26 11:05:41;;;;;;;37.42;19.85;;;4.10;99.90;;;;;;5028605;28;20539;-77
2021/01/26 11:08:07;;;;;;;33.30;18.45;;;4.40;99.90;;;;;;5038228;28;20040;-76
2021/01/26 11:10:35;;;;;;;35.75;19.67;;;4.60;99.90;;;;;;5036879;28;20029;-75
2021/01/26 11:13:00;;;;;;;34.10;18.83;;;4.80;99.90;;;;;;5038832;28;20041;-75
2021/01/26 11:15:27;;;;;;;32.85;18.00;;;5.00;99.90;;;;;;5035523;28;20029;-75
2021/01/26 11:17:53;;;;;;;33.38;18.70;;;5.10;99.90;;;;;;5042591;28;20101;-74
2021/01/26 11:20:20;;;;;;;38.05;20.58;;;5.10;99.90;;;;;;5048252;28;20119;-74
2021/01/26 11:22:46;;;;;;;37.75;20.33;;;5.10;99.90;;;;;;5034658;28;20048;-75
2021/01/26 11:25:12;;;;;;;37.33;19.08;;;5.10;99.90;;;;;;5046164;28;20035;-74
2021/01/26 11:27:38;;;;;;;39.90;20.55;;;5.00;99.90;;;;;;5038690;28;20036;-73
2021/01/26 11:30:06;;;;;;;38.83;19.83;;;5.10;99.90;;;;;;5044006;28;20032;-74
2021/01/26 11:32:31;;;;;;;42.58;22.23;;;5.00;99.90;;;;;;5037230;28;20068;-74
2021/01/26 11:34:57;;;;;;;41.78;20.25;;;4.80;99.90;;;;;;5046793;28;20164;-74
2021/01/26 11:37:23;;;;;;;37.08;21.25;;;4.60;99.90;;;;;;5041790;28;20029;-74
2021/01/26 11:39:49;;;;;;;42.38;22.13;;;4.50;99.90;;;;;;5043957;28;20625;-74
2021/01/26 11:42:14;;;;;;;37.60;20.95;;;4.40;99.90;;;;;;5047936;28;20033;-74
2021/01/26 11:44:42;;;;;;;39.95;20.92;;;4.30;99.90;;;;;;5040781;28;20079;-75
2021/01/26 11:47:07;;;;;;;37.08;20.80;;;4.10;99.90;;;;;;5037856;28;20033;-74
2021/01/26 11:49:33;;;;;;;37.40;20.92;;;4.00;99.90;;;;;;5057387;28;20070;-74
2021/01/26 11:51:59;;;;;;;36.45;20.50;;;4.00;99.90;;;;;;5051482;28;20033;-74
2021/01/26 11:54:25;;;;;;;40.08;20.45;;;4.00;99.90;;;;;;5049095;28;20746;-74
2021/01/26 11:56:50;;;;;;;38.22;21.25;;;4.10;99.90;;;;;;5038974;28;20040;-74
2021/01/26 11:59:16;;;;;;;36.78;20.20;;;4.20;99.90;;;;;;5041346;28;20167;-75
2021/01/26 12:01:42;;;;;;;37.30;19.58;;;4.50;99.90;;;;;;5054419;28;20568;-74
2021/01/26 12:04:08;;;;;;;33.35;18.58;;;4.90;99.90;;;;;;5048373;28;20040;-71
2021/01/26 12:06:33;;;;;;;36.85;18.70;;;5.20;99.90;;;;;;5049709;28;20043;-74
2021/01/26 12:08:59;;;;;;;39.58;20.35;;;5.40;99.90;;;;;;5041896;28;20040;-74
2021/01/26 12:11:25;;;;;;;34.38;20.27;;;5.60;99.90;;;;;;5041686;28;20032;-68
2021/01/26 12:13:51;;;;;;;32.63;18.98;;;5.90;99.90;;;;;;5049167;28;20097;-74
2021/01/26 12:16:16;;;;;;;44.88;21.73;;;5.60;99.90;;;;;;5037910;28;20044;-72
2021/01/26 12:18:42;;;;;;;40.13;19.95;;;5.60;99.90;;;;;;5042097;28;20032;-75
2021/01/26 12:21:08;;;;;;;45.67;22.27;;;5.40;99.90;;;;;;5045022;28;20650;-77
2021/01/26 12:23:34;;;;;;;39.72;22.42;;;5.20;99.90;;;;;;5035779;28;20041;-77
2021/01/26 12:25:59;;;;;;;39.30;19.70;;;5.30;99.90;;;;;;5038282;28;20029;-75
2021/01/26 12:28:26;;;;;;;41.50;22.33;;;5.50;99.90;;;;;;5039757;28;20028;-74
2021/01/26 12:30:55;;;;;;;36.78;20.38;;;5.60;99.90;;;;;;5039974;28;20489;-74
2021/01/26 12:33:21;;;;;;;38.75;20.83;;;5.40;99.90;;;;;;5036331;28;20040;-74
2021/01/26 12:35:46;;;;;;;39.53;22.33;;;5.00;99.90;;;;;;5045709;28;20020;-75
2021/01/26 12:38:13;;;;;;;40.15;22.33;;;4.80;99.90;;;;;;5025640;28;20903;-74
2021/01/26 12:40:39;;;;;;;40.65;22.73;;;4.50;99.90;;;;;;5038412;28;20077;-76
2021/01/26 12:43:06;;;;;;;37.83;21.10;;;4.40;99.90;;;;;;5046259;28;20847;-76
2021/01/26 12:45:33;;;;;;;42.00;20.35;;;4.50;99.90;;;;;;5041227;28;20100;-74
2021/01/26 12:47:59;;;;;;;41.08;21.08;;;4.80;99.90;;;;;;5040729;28;20834;-72
2021/01/26 12:50:28;;;;;;;37.90;21.45;;;5.10;99.90;;;;;;5046903;28;20033;-78
2021/01/26 12:52:54;;;;;;;33.85;19.05;;;5.50;99.90;;;;;;5041114;28;20082;-77
2021/01/26 12:55:20;;;;;;;35.72;19.77;;;5.80;99.90;;;;;;5038210;28;20419;-78
2021/01/26 12:57:46;;;;;;;30.63;16.33;;;5.90;99.90;;;;;;5033413;28;20045;-77
2021/01/26 13:00:16;;;;;;;28.60;17.05;;;6.30;99.90;;;;;;5037357;28;20032;-77
2021/01/26 13:02:41;;;;;;;26.88;15.68;;;6.70;99.90;;;;;;5029395;28;20745;-77
2021/01/26 13:05:10;;;;;;;25.15;14.88;;;7.00;99.90;;;;;;5036150;28;20051;-77
2021/01/26 13:07:36;;;;;;;30.73;15.73;;;7.40;99.90;;;;;;5038830;28;20037;-77
2021/01/26 13:10:02;;;;;;;31.80;17.20;;;7.60;99.90;;;;;;5038891;28;20025;-82
2021/01/26 13:12:28;;;;;;;29.73;17.40;;;7.60;99.90;;;;;;5042076;28;20116;-83